Time;durP1;ratioP1;P1;durP2;ratioP2;P2;SDS_P1;SDS_P2;PMS_P1;PMS_P2;Temp;Humidity;BMP_temperature;BMP_pressure;BME280_temperature;BME280_humidity;BME280_pressure;Samples;Min_cycle;Max_cycle;Signal;HPM_P1;HPM_P2
2023/04/24 00:00:52;;;;;;;1.10;0.70;;;15.00;96.60;;;;;;10404440;28;20017;-88
2023/04/24 00:05:52;;;;;;;0.50;0.50;;;14.30;96.50;;;;;;10399846;28;20374;-87
2023/04/24 00:10:53;;;;;;;0.90;0.77;;;14.80;96.60;;;;;;10404257;28;20029;-87
2023/04/24 00:15:55;;;;;;;0.80;0.50;;;14.30;96.50;;;;;;10406582;28;20025;-88
2023/04/24 00:20:56;;;;;;;1.13;0.90;;;14.60;96.60;;;;;;10398928;28;20199;-87
2023/04/24 00:25:56;;;;;;;0.60;0.50;;;14.50;96.60;;;;;;10400341;28;20032;-87
2023/04/24 00:30:57;;;;;;;0.50;0.45;;;15.00;96.70;;;;;;10400333;28;20035;-88
2023/04/24 00:35:58;;;;;;;0.90;0.60;;;14.20;96.50;;;;;;10402578;28;20017;-87
2023/04/24 00:40:59;;;;;;;0.70;0.68;;;14.20;96.50;;;;;;10379940;28;20052;-87
2023/04/24 00:46:01;;;;;;;0.80;0.63;;;14.40;96.60;;;;;;10399738;28;20025;-88
2023/04/24 00:51:02;;;;;;;0.60;0.50;;;14.70;96.70;;;;;;10392558;28;20680;-88
2023/04/24 00:56:04;;;;;;;0.88;0.60;;;14.10;96.50;;;;;;10403965;28;20079;-88
2023/04/24 01:01:06;;;;;;;0.50;0.50;;;14.10;96.60;;;;;;10387575;28;20033;-87
2023/04/24 01:06:07;;;;;;;0.52;0.50;;;14.80;96.70;;;;;;10384175;28;20030;-87
2023/04/24 01:11:08;;;;;;;0.73;0.50;;;14.10;96.60;;;;;;10405680;28;20042;-87
2023/04/24 01:16:09;;;;;;;0.60;0.50;;;14.90;96.80;;;;;;10407087;28;20192;-88
2023/04/24 01:21:12;;;;;;;0.70;0.47;;;14.10;96.60;;;;;;10391107;28;20045;-88
2023/04/24 01:26:15;;;;;;;0.75;0.52;;;14.00;96.60;;;;;;10412761;28;20029;-88
2023/04/24 01:31:16;;;;;;;1.27;0.55;;;14.30;96.70;;;;;;10409864;28;20370;-88
2023/04/24 01:36:17;;;;;;;0.68;0.63;;;14.00;96.60;;;;;;10397368;28;20025;-87
2023/04/24 01:41:20;;;;;;;1.42;0.60;;;14.00;96.60;;;;;;10405011;28;20039;-87
2023/04/24 01:46:21;;;;;;;0.50;0.47;;;14.00;96.90;;;;;;10394184;28;20087;-88
2023/04/24 01:51:21;;;;;;;0.90;0.52;;;14.30;96.70;;;;;;10418774;28;20033;-87
2023/04/24 01:56:22;;;;;;;1.27;0.40;;;14.00;96.60;;;;;;10407385;28;20072;-87
2023/04/24 02:01:24;;;;;;;0.52;0.52;;;14.60;96.80;;;;;;10407874;28;20117;-87
2023/04/24 02:06:25;;;;;;;0.60;0.60;;;14.60;96.80;;;;;;10406060;28;20033;-87
2023/04/24 02:11:26;;;;;;;1.45;0.50;;;14.00;96.70;;;;;;10399097;28;20037;-87
2023/04/24 02:16:31;;;;;;;0.90;0.68;;;13.90;96.60;;;;;;10402215;28;20105;-87
2023/04/24 02:21:33;;;;;;;0.68;0.40;;;14.50;96.80;;;;;;10399203;28;20041;-87
2023/04/24 02:26:33;;;;;;;0.57;0.40;;;13.90;96.60;;;;;;10412473;28;20090;-87
2023/04/24 02:31:35;;;;;;;0.52;0.40;;;13.80;96.60;;;;;;10412368;28;20033;-88
2023/04/24 02:36:35;;;;;;;0.40;0.40;;;13.80;96.60;;;;;;10406535;28;20020;-87
2023/04/24 02:41:36;;;;;;;0.50;0.50;;;13.80;96.60;;;;;;10398643;28;20652;-87
2023/04/24 02:46:37;;;;;;;0.73;0.50;;;13.80;96.60;;;;;;10405246;28;20029;-87
2023/04/24 02:51:40;;;;;;;0.60;0.40;;;13.80;96.60;;;;;;10415024;28;20087;-87
2023/04/24 02:56:41;;;;;;;0.32;0.30;;;14.50;96.80;;;;;;10408943;28;20710;-87
2023/04/24 03:01:42;;;;;;;0.43;0.30;;;13.80;96.60;;;;;;10403931;28;20022;-88
2023/04/24 03:06:44;;;;;;;0.38;0.30;;;13.70;96.60;;;;;;10411875;28;20028;-87
2023/04/24 03:11:45;;;;;;;0.43;0.30;;;13.80;96.60;;;;;;10404620;28;20036;-87
2023/04/24 03:16:45;;;;;;;0.30;0.30;;;14.60;96.90;;;;;;10408322;28;20032;-87
2023/04/24 03:21:46;;;;;;;0.30;0.30;;;13.90;96.70;;;;;;10419339;28;20026;-87
2023/04/24 03:26:47;;;;;;;0.40;0.40;;;13.70;96.60;;;;;;10400026;28;20021;-87
2023/04/24 03:31:47;;;;;;;0.30;0.30;;;13.60;96.60;;;;;;10409774;28;20518;-88
2023/04/24 03:36:48;;;;;;;0.47;0.30;;;13.60;96.60;;;;;;10409875;28;20170;-87
2023/04/24 03:41:48;;;;;;;0.40;0.35;;;14.20;96.80;;;;;;10400640;28;20033;-86
2023/04/24 03:46:49;;;;;;;0.20;0.20;;;13.60;96.70;;;;;;10406844;28;20111;-87
2023/04/24 03:51:50;;;;;;;0.25;0.20;;;14.00;96.80;;;;;;10415348;28;20021;-88
2023/04/24 03:56:51;;;;;;;0.35;0.20;;;13.60;96.70;;;;;;10403664;28;20048;-88
2023/04/24 04:01:52;;;;;;;0.50;0.20;;;13.50;96.70;;;;;;10401624;28;20049;-87
2023/04/24 04:06:53;;;;;;;0.20;0.20;;;14.10;96.80;;;;;;10413813;28;20108;-87
2023/04/24 04:11:53;;;;;;;0.10;0.10;;;14.60;97.00;;;;;;10399404;28;20528;-88
2023/04/24 04:16:55;;;;;;;0.43;0.20;;;14.20;96.90;;;;;;10414636;28;20018;-87
2023/04/24 04:21:56;;;;;;;0.30;0.10;;;13.70;96.70;;;;;;10416920;28;20518;-88
2023/04/24 04:26:57;;;;;;;0.20;0.17;;;13.60;96.80;;;;;;10415542;28;20030;-87
2023/04/24 04:31:59;;;;;;;0.35;0.20;;;13.50;96.70;;;;;;10401556;28;20030;-88
2023/04/24 04:37:00;;;;;;;4.60;0.20;;;13.40;96.70;;;;;;10401714;28;20060;-88
2023/04/24 04:42:01;;;;;;;0.20;0.20;;;14.10;96.90;;;;;;10420765;28;20033;-88
2023/04/24 04:47:05;;;;;;;0.30;0.10;;;13.40;96.70;;;;;;10413737;28;20024;-86
2023/04/24 04:52:05;;;;;;;0.28;0.20;;;13.40;96.70;;;;;;10408779;28;20083;-88
2023/04/24 04:57:06;;;;;;;1.30;0.30;;;13.90;96.80;;;;;;10419840;28;20026;-88
2023/04/24 05:02:07;;;;;;;0.30;0.20;;;13.70;96.80;;;;;;10406552;28;20500;-88
2023/04/24 05:07:08;;;;;;;0.40;0.20;;;13.40;96.70;;;;;;10417338;28;20128;-87
2023/04/24 05:12:08;;;;;;;0.40;0.30;;;13.40;96.70;;;;;;10406046;28;20030;-88
2023/04/24 05:17:09;;;;;;;0.25;0.20;;;13.60;96.80;;;;;;10412466;28;20525;-87
2023/04/24 05:22:11;;;;;;;0.20;0.20;;;14.50;97.00;;;;;;10405714;28;20049;-88
2023/04/24 05:27:12;;;;;;;0.35;0.30;;;14.10;96.90;;;;;;10411688;28;20033;-87
2023/04/24 05:32:12;;;;;;;0.50;0.30;;;13.90;96.80;;;;;;10406467;28;20025;-88
2023/04/24 05:37:13;;;;;;;2.03;0.40;;;13.60;96.70;;;;;;10408783;28;20124;-87
2023/04/24 05:42:13;;;;;;;0.50;0.40;;;14.20;96.90;;;;;;10405542;28;20124;-88
2023/04/24 05:47:15;;;;;;;0.50;0.40;;;14.70;97.00;;;;;;10405018;28;20040;-87
2023/04/24 05:52:15;;;;;;;0.30;0.30;;;13.70;96.80;;;;;;10391748;28;20041;-88
2023/04/24 05:57:16;;;;;;;0.30;0.30;;;13.50;96.80;;;;;;10406914;28;20020;-88
2023/04/24 06:02:17;;;;;;;0.50;0.38;;;14.30;97.00;;;;;;10410013;28;20028;-88
2023/04/24 06:07:18;;;;;;;0.77;0.40;;;13.30;96.70;;;;;;10419403;28;20033;-89
2023/04/24 06:12:18;;;;;;;0.45;0.45;;;13.40;96.70;;;;;;10413893;28;20044;-89
2023/04/24 06:17:19;;;;;;;0.20;0.20;;;14.50;97.00;;;;;;10408597;28;20037;-88
2023/04/24 06:22:20;;;;;;;0.57;0.40;;;13.20;96.70;;;;;;10413321;28;20033;-86
2023/04/24 06:27:20;;;;;;;0.57;0.35;;;13.20;96.70;;;;;;10406275;28;20068;-87
2023/04/24 06:32:23;;;;;;;0.47;0.30;;;14.20;97.00;;;;;;10423838;28;20498;-88
2023/04/24 06:37:24;;;;;;;0.68;0.30;;;13.20;96.70;;;;;;10413971;28;20109;-87
2023/04/24 06:42:25;;;;;;;0.55;0.45;;;13.20;96.80;;;;;;10406344;28;20501;-87
2023/04/24 06:47:27;;;;;;;0.45;0.40;;;14.30;97.00;;;;;;10400051;28;20140;-90
2023/04/24 06:52:27;;;;;;;0.70;0.40;;;13.50;96.80;;;;;;10383696;28;20116;-90
2023/04/24 06:57:28;;;;;;;0.93;0.30;;;13.70;96.90;;;;;;10411381;28;20483;-88
2023/04/24 07:02:29;;;;;;;0.43;0.43;;;14.50;97.10;;;;;;10415683;28;20060;-86
2023/04/24 07:07:29;;;;;;;0.38;0.30;;;14.00;97.00;;;;;;10403080;28;20042;-83
2023/04/24 07:12:30;;;;;;;1.88;0.60;;;13.20;96.80;;;;;;10408967;28;20045;-86
2023/04/24 07:17:31;;;;;;;1.20;0.45;;;13.20;96.80;;;;;;10390524;28;20036;-84
2023/04/24 07:22:31;;;;;;;0.75;0.50;;;13.20;96.80;;;;;;10411205;28;20051;-84
2023/04/24 07:27:33;;;;;;;1.50;0.60;;;14.00;97.00;;;;;;10406933;28;20116;-85
2023/04/24 07:32:34;;;;;;;0.82;0.50;;;13.20;96.80;;;;;;10399137;28;20044;-84
2023/04/24 07:37:35;;;;;;;0.90;0.65;;;13.50;96.90;;;;;;10398649;28;20048;-85
2023/04/24 07:42:36;;;;;;;1.05;0.90;;;13.40;96.90;;;;;;10411171;28;20509;-85
2023/04/24 07:47:39;;;;;;;1.77;0.70;;;13.10;96.80;;;;;;10400109;28;20109;-85
2023/04/24 07:52:39;;;;;;;1.90;0.55;;;13.30;96.90;;;;;;10405139;28;20017;-83
2023/04/24 07:57:40;;;;;;;2.05;0.68;;;13.90;97.00;;;;;;10399605;28;20037;-87
2023/04/24 08:02:41;;;;;;;0.80;0.73;;;13.70;97.00;;;;;;10396511;28;20383;-86
2023/04/24 08:07:42;;;;;;;2.47;1.10;;;13.80;97.00;;;;;;10403465;28;20033;-86
2023/04/24 08:12:43;;;;;;;1.15;0.90;;;13.10;96.90;;;;;;10411356;28;20056;-85
2023/04/24 08:17:43;;;;;;;1.38;0.80;;;14.20;97.10;;;;;;10406846;28;20036;-87
2023/04/24 08:22:47;;;;;;;2.08;1.00;;;14.00;97.10;;;;;;10414679;28;20401;-88
2023/04/24 08:27:47;;;;;;;2.08;0.90;;;13.60;97.00;;;;;;10408856;28;20061;-85
2023/04/24 08:32:48;;;;;;;4.72;1.40;;;13.10;96.90;;;;;;10421497;28;20116;-88
2023/04/24 08:37:48;;;;;;;2.30;1.80;;;13.10;97.00;;;;;;10416024;28;20029;-87
2023/04/24 08:42:54;;;;;;;3.67;1.50;;;13.70;97.10;;;;;;10407830;28;20140;-87
2023/04/24 08:47:55;;;;;;;3.88;1.63;;;13.20;97.00;;;;;;10401558;28;20034;-85
2023/04/24 08:52:56;;;;;;;2.40;1.50;;;13.60;97.10;;;;;;10413225;28;20520;-86
2023/04/24 08:57:58;;;;;;;2.83;1.50;;;14.30;97.30;;;;;;10421265;28;20045;-89
2023/04/24 09:03:01;;;;;;;1.92;1.58;;;13.00;97.00;;;;;;10410458;28;20090;-87
2023/04/24 09:08:06;;;;;;;2.85;1.75;;;13.00;97.00;;;;;;10419764;28;20516;-89
2023/04/24 09:13:11;;;;;;;3.65;1.98;;;13.00;96.90;;;;;;10422199;28;20111;-89
2023/04/24 09:18:11;;;;;;;3.50;1.88;;;13.30;97.00;;;;;;10412423;28;20024;-87
2023/04/24 09:23:17;;;;;;;3.22;1.60;;;13.10;96.90;;;;;;10428451;28;20032;-87
2023/04/24 09:28:34;;;;;;;3.63;1.70;;;13.90;97.10;;;;;;10415743;28;20032;-86
2023/04/24 09:33:36;;;;;;;4.22;1.40;;;13.70;97.00;;;;;;10412885;28;20088;-84
2023/04/24 09:38:37;;;;;;;3.92;2.13;;;14.10;97.10;;;;;;10407016;28;20051;-87
2023/04/24 09:43:38;;;;;;;3.08;1.90;;;13.50;97.00;;;;;;10406043;28;20532;-86
2023/04/24 09:48:38;;;;;;;4.47;2.10;;;13.10;96.90;;;;;;10408144;28;20120;-87
2023/04/24 09:53:47;;;;;;;3.05;1.88;;;13.10;96.90;;;;;;10409438;28;20028;-87
2023/04/24 09:58:47;;;;;;;4.07;2.10;;;13.10;96.90;;;;;;10412135;28;20025;-86
2023/04/24 10:03:49;;;;;;;4.47;2.10;;;13.50;97.00;;;;;;10424005;28;20089;-86
2023/04/24 10:08:50;;;;;;;2.75;1.80;;;13.10;96.90;;;;;;10420934;28;20098;-86
2023/04/24 10:13:52;;;;;;;2.83;1.70;;;13.50;97.00;;;;;;10432437;28;20021;-86
2023/04/24 10:18:52;;;;;;;3.97;1.98;;;13.30;97.00;;;;;;10422620;28;20152;-86
2023/04/24 10:23:53;;;;;;;4.50;1.60;;;13.40;97.00;;;;;;10407479;28;20021;-84
2023/04/24 10:28:56;;;;;;;4.78;2.20;;;13.30;97.00;;;;;;10408372;28;20021;-83
2023/04/24 10:33:58;;;;;;;4.82;2.00;;;13.40;96.90;;;;;;10405017;28;20021;-84
2023/04/24 10:39:01;;;;;;;7.07;2.25;;;13.40;97.10;;;;;;10426079;28;20125;-85
2023/04/24 10:44:11;;;;;;;7.65;1.98;;;12.90;97.00;;;;;;10402944;28;20025;-86
2023/04/24 10:49:11;;;;;;;8.50;2.10;;;12.90;97.00;;;;;;10417199;28;20022;-84
2023/04/24 10:54:34;;;;;;;7.68;1.90;;;13.00;96.90;;;;;;10412387;28;20030;-89
2023/04/24 10:59:37;;;;;;;5.00;2.00;;;13.00;97.00;;;;;;10406842;28;20025;-85
2023/04/24 11:04:37;;;;;;;6.40;1.90;;;13.00;96.70;;;;;;10409975;28;20483;-85
2023/04/24 11:09:40;;;;;;;4.07;2.08;;;13.10;96.80;;;;;;10414530;28;20029;-85
2023/04/24 11:14:56;;;;;;;8.23;2.80;;;13.10;96.70;;;;;;10413891;28;20057;-85
2023/04/24 11:20:09;;;;;;;5.50;2.22;;;13.10;96.80;;;;;;10404778;28;20104;-88
2023/04/24 11:25:11;;;;;;;5.30;2.35;;;13.10;96.70;;;;;;10409050;28;20038;-86
2023/04/24 11:30:16;;;;;;;7.53;1.58;;;14.00;96.90;;;;;;10407348;28;20025;-87
2023/04/24 11:35:24;;;;;;;5.72;1.80;;;13.10;96.70;;;;;;10386879;28;20091;-86
2023/04/24 11:40:25;;;;;;;11.20;1.88;;;12.90;96.20;;;;;;10413485;28;20033;-86
2023/04/24 11:45:29;;;;;;;4.55;1.65;;;12.50;96.70;;;;;;10410954;28;20021;-85
2023/04/24 11:50:30;;;;;;;9.23;1.80;;;12.50;96.90;;;;;;10396685;28;20032;-86
2023/04/24 11:55:31;;;;;;;7.45;1.63;;;13.00;97.10;;;;;;10405487;28;20923;-87
2023/04/24 12:00:36;;;;;;;5.60;2.40;;;12.70;96.80;;;;;;10408333;28;20026;-86
2023/04/24 12:05:37;;;;;;;5.63;1.67;;;13.90;97.00;;;;;;10410455;28;20024;-85
2023/04/24 12:10:38;;;;;;;6.10;1.90;;;12.90;96.70;;;;;;10412584;28;20029;-85
2023/04/24 12:15:40;;;;;;;6.03;1.80;;;12.90;96.60;;;;;;10414015;28;20048;-86
2023/04/24 12:20:41;;;;;;;3.83;1.45;;;13.00;96.50;;;;;;10414847;28;20024;-86
2023/04/24 12:25:41;;;;;;;6.05;1.70;;;13.40;96.60;;;;;;10405401;28;20560;-87
2023/04/24 12:30:44;;;;;;;4.65;1.80;;;13.70;96.80;;;;;;10411527;28;20113;-86
2023/04/24 12:35:45;;;;;;;2.42;1.48;;;13.00;96.60;;;;;;10406999;28;20152;-86
2023/04/24 12:40:46;;;;;;;3.53;1.48;;;13.00;96.60;;;;;;10412013;28;20144;-86
2023/04/24 12:45:48;;;;;;;3.08;1.30;;;13.00;96.60;;;;;;10411514;28;20021;-85
2023/04/24 12:50:48;;;;;;;6.25;1.38;;;13.00;96.60;;;;;;10414883;28;20429;-86
2023/04/24 12:55:52;;;;;;;4.35;1.65;;;13.00;96.60;;;;;;10409873;28;20304;-86
2023/04/24 13:00:54;;;;;;;2.42;1.10;;;13.00;96.60;;;;;;10416173;28;20021;-86
2023/04/24 13:05:54;;;;;;;3.83;1.25;;;13.00;96.60;;;;;;10425627;28;20017;-86
2023/04/24 13:10:55;;;;;;;1.33;0.95;;;13.00;96.70;;;;;;10406838;28;20112;-87
2023/04/24 13:15:57;;;;;;;3.28;1.17;;;13.00;96.70;;;;;;10417866;28;20111;-87
2023/04/24 13:20:58;;;;;;;3.88;1.10;;;13.90;96.90;;;;;;10426005;28;20528;-87
2023/04/24 13:26:01;;;;;;;2.30;1.10;;;13.00;96.70;;;;;;10415109;28;20029;-88
2023/04/24 13:31:01;;;;;;;4.47;1.17;;;13.10;96.70;;;;;;10418375;28;20025;-87
2023/04/24 13:36:02;;;;;;;2.30;0.90;;;13.60;96.90;;;;;;10413683;28;20549;-84
2023/04/24 13:41:03;;;;;;;1.98;0.80;;;13.00;96.60;;;;;;10421728;28;20021;-86
2023/04/24 13:46:03;;;;;;;3.00;0.65;;;12.90;96.60;;;;;;10419807;28;20031;-85
2023/04/24 13:51:04;;;;;;;3.42;0.82;;;12.90;96.60;;;;;;10413076;28;20028;-84
2023/04/24 13:56:05;;;;;;;2.28;0.80;;;12.90;96.60;;;;;;10419461;28;20020;-84
2023/04/24 14:01:06;;;;;;;4.80;1.10;;;12.90;96.60;;;;;;10412669;28;20076;-85
2023/04/24 14:06:07;;;;;;;5.22;1.17;;;13.00;96.60;;;;;;10417455;28;20147;-87
2023/04/24 14:11:08;;;;;;;2.58;0.82;;;12.90;96.60;;;;;;10417834;28;20525;-89
2023/04/24 14:16:10;;;;;;;5.35;1.25;;;12.80;96.60;;;;;;10419464;28;20088;-87
2023/04/24 14:21:11;;;;;;;2.30;0.93;;;12.90;96.60;;;;;;10420305;28;20124;-85
2023/04/24 14:26:12;;;;;;;2.75;1.00;;;12.90;96.60;;;;;;10411865;28;20041;-84
2023/04/24 14:31:12;;;;;;;2.60;0.95;;;12.90;96.60;;;;;;10412449;28;20048;-85
2023/04/24 14:36:13;;;;;;;2.55;1.10;;;13.60;96.80;;;;;;10419318;28;20018;-86
2023/04/24 14:41:15;;;;;;;2.78;1.45;;;12.90;96.60;;;;;;10421971;28;20053;-86
2023/04/24 14:46:16;;;;;;;2.30;1.05;;;13.20;96.60;;;;;;10426368;28;20033;-87
2023/04/24 14:51:20;;;;;;;2.70;0.90;;;13.50;96.70;;;;;;10402460;28;20053;-88
2023/04/24 14:56:21;;;;;;;2.72;0.90;;;12.90;96.60;;;;;;10409048;28;20021;-89
2023/04/24 15:01:22;;;;;;;5.75;1.27;;;12.10;96.40;;;;;;10412273;28;20060;-88
2023/04/24 15:06:22;;;;;;;2.58;0.90;;;12.90;96.50;;;;;;10423035;28;20026;-88
2023/04/24 15:11:23;;;;;;;6.18;1.55;;;12.90;96.50;;;;;;10411504;28;20029;-89
2023/04/24 15:16:24;;;;;;;3.00;1.00;;;13.30;96.60;;;;;;10415967;28;20025;-89
2023/04/24 15:21:25;;;;;;;3.30;1.45;;;13.80;96.60;;;;;;10416443;28;20598;-90
2023/04/24 15:26:26;;;;;;;10.27;1.80;;;14.00;96.70;;;;;;10403482;28;20064;-89
2023/04/24 15:31:27;;;;;;;3.95;1.30;;;12.90;96.40;;;;;;10403679;28;20082;-89
2023/04/24 15:36:28;;;;;;;11.57;2.05;;;12.90;96.40;;;;;;10422269;28;20030;-87
2023/04/24 15:41:29;;;;;;;4.05;2.00;;;13.00;96.40;;;;;;10406744;28;20049;-85
2023/04/24 15:46:29;;;;;;;7.10;2.00;;;13.00;96.40;;;;;;10405715;28;20418;-83
2023/04/24 15:51:30;;;;;;;6.63;1.70;;;13.00;96.40;;;;;;10410832;28;20698;-85
2023/04/24 15:56:35;;;;;;;9.60;2.00;;;13.00;96.40;;;;;;10414703;28;20452;-83
2023/04/24 16:01:37;;;;;;;5.72;1.73;;;11.90;96.10;;;;;;10416355;28;20032;-84
2023/04/24 16:06:38;;;;;;;6.03;1.88;;;13.00;96.40;;;;;;10407296;28;20018;-83
2023/04/24 16:11:38;;;;;;;3.85;1.85;;;13.00;96.40;;;;;;10399421;28;20046;-85
2023/04/24 16:16:39;;;;;;;9.02;2.17;;;13.00;96.50;;;;;;10407203;28;20037;-83
2023/04/24 16:21:40;;;;;;;5.10;1.52;;;13.10;96.40;;;;;;10406369;28;20044;-82
2023/04/24 16:26:40;;;;;;;8.70;1.55;;;13.30;96.30;;;;;;10415922;28;20033;-86
2023/04/24 16:31:41;;;;;;;5.97;1.60;;;13.20;96.30;;;;;;10406323;28;20026;-85
2023/04/24 16:36:42;;;;;;;5.25;2.28;;;13.20;96.30;;;;;;10414512;28;20025;-86
2023/04/24 16:41:44;;;;;;;3.67;1.42;;;14.00;96.50;;;;;;10401623;28;20533;-85
2023/04/24 16:46:44;;;;;;;2.47;1.48;;;14.00;96.50;;;;;;10416995;28;20030;-84
2023/04/24 16:51:45;;;;;;;5.53;1.55;;;13.50;96.50;;;;;;10421471;28;20032;-86
2023/04/24 16:56:45;;;;;;;4.03;1.65;;;13.70;96.50;;;;;;10417967;28;20132;-84
2023/04/24 17:01:47;;;;;;;6.20;1.58;;;13.20;96.50;;;;;;10421127;28;20033;-86
2023/04/24 17:06:47;;;;;;;4.78;1.55;;;13.10;96.50;;;;;;10426591;28;20026;-84
2023/04/24 17:11:49;;;;;;;4.28;1.60;;;13.20;96.60;;;;;;10409150;28;20026;-84
2023/04/24 17:16:51;;;;;;;5.18;1.63;;;13.10;96.60;;;;;;10419061;28;20433;-87
2023/04/24 17:21:51;;;;;;;5.65;1.90;;;13.10;96.70;;;;;;10442763;28;20047;-84
2023/04/24 17:26:53;;;;;;;3.50;1.27;;;13.30;96.80;;;;;;10414935;28;20082;-85
2023/04/24 17:31:53;;;;;;;3.28;1.40;;;13.10;96.80;;;;;;10427327;28;20028;-87
2023/04/24 17:36:55;;;;;;;4.28;1.60;;;13.10;96.80;;;;;;10427409;28;20013;-86
2023/04/24 17:41:57;;;;;;;4.75;1.52;;;13.10;96.80;;;;;;10437912;28;20501;-86
2023/04/24 17:46:57;;;;;;;4.78;1.40;;;13.00;96.80;;;;;;10395530;28;20073;-87
2023/04/24 17:51:58;;;;;;;5.55;1.73;;;13.00;96.90;;;;;;10427866;28;20033;-85
2023/04/24 17:56:59;;;;;;;4.75;1.55;;;13.60;97.10;;;;;;10408386;28;20033;-89
2023/04/24 18:01:59;;;;;;;7.93;1.80;;;12.90;97.00;;;;;;10411968;28;20457;-87
2023/04/24 18:07:00;;;;;;;4.18;1.58;;;13.30;97.10;;;;;;10407936;28;20040;-88
2023/04/24 18:12:01;;;;;;;4.47;1.80;;;14.00;97.30;;;;;;10410829;28;20040;-87
2023/04/24 18:17:02;;;;;;;2.30;1.60;;;12.80;97.10;;;;;;10412877;28;20094;-87
2023/04/24 18:22:03;;;;;;;9.48;1.80;;;13.80;97.30;;;;;;10411641;28;20687;-87
2023/04/24 18:27:04;;;;;;;3.08;1.60;;;13.40;97.30;;;;;;10412096;28;20507;-87
2023/04/24 18:32:06;;;;;;;2.70;1.50;;;12.60;97.10;;;;;;10413090;28;20029;-88
2023/04/24 18:37:06;;;;;;;7.00;1.60;;;13.00;97.20;;;;;;10407798;28;20021;-88
2023/04/24 18:42:07;;;;;;;3.40;1.70;;;13.20;97.20;;;;;;10411999;28;20021;-88
2023/04/24 18:47:08;;;;;;;2.97;1.50;;;13.70;97.40;;;;;;10405362;28;20134;-89
2023/04/24 18:52:09;;;;;;;2.53;1.60;;;12.60;97.40;;;;;;10401926;28;20053;-88
2023/04/24 18:57:10;;;;;;;1.70;1.25;;;12.90;97.20;;;;;;10409409;28;20032;-88
2023/04/24 19:02:10;;;;;;;2.97;1.23;;;13.00;97.20;;;;;;10398833;28;20044;-88
2023/04/24 19:07:18;;;;;;;3.22;1.30;;;12.50;97.10;;;;;;10408934;28;20032;-87
2023/04/24 19:12:19;;;;;;;3.33;1.50;;;13.00;97.20;;;;;;10405194;28;20032;-87
2023/04/24 19:17:23;;;;;;;3.85;1.42;;;12.50;97.10;;;;;;10410156;28;20048;-88
2023/04/24 19:22:23;;;;;;;3.05;1.30;;;12.50;97.10;;;;;;10401480;28;20672;-87
2023/04/24 19:27:24;;;;;;;2.67;1.38;;;12.90;97.20;;;;;;10400617;28;20026;-87
2023/04/24 19:32:25;;;;;;;3.13;1.60;;;12.50;97.10;;;;;;10401138;28;20029;-87
2023/04/24 19:37:26;;;;;;;3.88;1.48;;;13.20;97.30;;;;;;10404552;28;20409;-87
2023/04/24 19:42:26;;;;;;;4.75;1.70;;;13.10;97.20;;;;;;10410693;28;20052;-86
2023/04/24 19:47:27;;;;;;;4.03;1.67;;;12.40;97.10;;;;;;10398038;28;20029;-87
2023/04/24 19:52:28;;;;;;;4.00;1.33;;;12.40;97.10;;;;;;10401578;28;20513;-87
2023/04/24 19:57:28;;;;;;;4.47;1.73;;;12.40;97.10;;;;;;10407195;28;20013;-87
2023/04/24 20:02:30;;;;;;;4.93;1.77;;;12.40;97.10;;;;;;10393987;28;20022;-88
2023/04/24 20:07:30;;;;;;;2.88;1.60;;;12.40;97.10;;;;;;10391865;28;20045;-87
2023/04/24 20:12:31;;;;;;;3.88;1.65;;;13.50;97.40;;;;;;10397462;28;20692;-84
2023/04/24 20:17:33;;;;;;;2.65;1.50;;;12.40;97.10;;;;;;10394763;28;20075;-88
2023/04/24 20:22:37;;;;;;;4.25;1.58;;;12.30;97.10;;;;;;10396732;28;20113;-87
2023/04/24 20:27:39;;;;;;;3.30;1.63;;;12.30;97.10;;;;;;10380715;28;20029;-88
2023/04/24 20:32:41;;;;;;;2.92;1.70;;;12.60;97.20;;;;;;10392899;28;20052;-87
2023/04/24 20:37:42;;;;;;;4.63;1.90;;;12.90;97.30;;;;;;10396823;28;20477;-88
2023/04/24 20:42:45;;;;;;;3.47;1.55;;;12.30;97.10;;;;;;10389449;28;20140;-87
2023/04/24 20:47:45;;;;;;;3.53;1.90;;;12.30;97.10;;;;;;10395721;28;20125;-88
2023/04/24 20:52:46;;;;;;;2.47;1.52;;;12.30;97.10;;;;;;10393158;28;20029;-87
2023/04/24 20:57:47;;;;;;;5.05;1.98;;;13.20;97.40;;;;;;10402468;28;20033;-87
2023/04/24 21:02:48;;;;;;;3.13;1.88;;;12.30;97.20;;;;;;10404545;28;20112;-87
2023/04/24 21:07:50;;;;;;;2.53;1.33;;;12.20;97.10;;;;;;10394112;28;20130;-86
2023/04/24 21:12:51;;;;;;;4.10;2.10;;;12.20;97.20;;;;;;10399482;28;20029;-87
2023/04/24 21:17:52;;;;;;;3.75;1.40;;;13.50;97.50;;;;;;10404242;28;20029;-87
2023/04/24 21:22:52;;;;;;;2.85;1.30;;;13.40;97.50;;;;;;10403416;28;20026;-86
2023/04/24 21:27:53;;;;;;;4.45;1.45;;;12.20;97.20;;;;;;10403274;28;20040;-86
2023/04/24 21:32:54;;;;;;;3.75;1.30;;;13.00;97.40;;;;;;10401040;28;20044;-86
2023/04/24 21:37:55;;;;;;;4.53;1.60;;;12.20;97.20;;;;;;10401435;28;20864;-89
2023/04/24 21:42:56;;;;;;;1.50;1.00;;;13.10;97.50;;;;;;10430426;23;20126;-70
2023/04/24 21:47:58;;;;;;;2.60;1.52;;;12.10;97.20;;;;;;10412501;28;20028;-70
2023/04/24 21:52:58;;;;;;;3.58;1.75;;;12.20;97.20;;;;;;10385812;28;20105;-70
2023/04/24 21:57:59;;;;;;;2.72;1.50;;;12.10;97.20;;;;;;10389414;28;20375;-70
2023/04/24 22:03:00;;;;;;;3.50;1.42;;;12.10;97.20;;;;;;10392275;28;20541;-70
2023/04/24 22:08:01;;;;;;;3.40;1.75;;;12.10;97.20;;;;;;10396461;28;20390;-70
2023/04/24 22:13:02;;;;;;;2.85;1.50;;;12.10;97.20;;;;;;10388212;28;20044;-70
2023/04/24 22:18:03;;;;;;;2.67;1.50;;;12.10;97.20;;;;;;10395694;28;20147;-70
2023/04/24 22:23:04;;;;;;;4.65;1.50;;;12.10;97.20;;;;;;10394757;28;20579;-70
2023/04/24 22:28:05;;;;;;;3.92;1.52;;;12.10;97.30;;;;;;10394556;28;20033;-70
2023/04/24 22:33:06;;;;;;;4.75;1.55;;;12.00;97.20;;;;;;10399580;28;20468;-68
2023/04/24 22:38:07;;;;;;;3.05;1.60;;;12.00;97.30;;;;;;10394788;28;20035;-68
2023/04/24 22:43:07;;;;;;;4.10;1.55;;;12.00;97.20;;;;;;10394572;28;20037;-68
2023/04/24 22:48:08;;;;;;;6.53;2.40;;;12.00;97.30;;;;;;10395222;28;20025;-68
2023/04/24 22:53:08;;;;;;;2.63;1.60;;;12.00;97.20;;;;;;10393250;28;20052;-68
2023/04/24 22:58:09;;;;;;;5.75;2.22;;;12.00;97.20;;;;;;10390844;28;20021;-69
2023/04/24 23:03:10;;;;;;;3.35;1.55;;;12.00;97.20;;;;;;10389689;28;20108;-68
2023/04/24 23:08:11;;;;;;;6.00;1.90;;;11.90;97.20;;;;;;10408358;28;20034;-68
2023/04/24 23:13:11;;;;;;;4.22;1.60;;;12.00;97.20;;;;;;10394606;28;20045;-68
2023/04/24 23:18:12;;;;;;;5.35;2.15;;;12.00;97.50;;;;;;10404266;28;20032;-67
2023/04/24 23:23:14;;;;;;;5.70;2.05;;;11.90;97.20;;;;;;10402749;28;20033;-68
2023/04/24 23:28:15;;;;;;;7.75;1.73;;;11.90;97.20;;;;;;10394571;28;20033;-68
2023/04/24 23:33:16;;;;;;;5.38;1.95;;;11.90;97.20;;;;;;10397814;28;20049;-68
2023/04/24 23:38:16;;;;;;;8.60;1.98;;;11.90;97.20;;;;;;10388931;28;20402;-68
2023/04/24 23:43:17;;;;;;;4.35;1.88;;;11.90;97.20;;;;;;10399871;28;20458;-69
2023/04/24 23:48:17;;;;;;;5.55;1.90;;;11.80;97.20;;;;;;10398509;28;20034;-67
2023/04/24 23:53:18;;;;;;;3.75;1.73;;;11.80;97.20;;;;;;10392657;28;20049;-68
2023/04/24 23:58:19;;;;;;;3.55;1.65;;;11.80;97.20;;;;;;10396780;28;20048;-68
